Boyne Falls, MI

12:07 AM EST on December 10, 2016 (GMT -0500)
Sleepy Fawn Apartments | | Change Station
Active Advisory: Winter Storm Warning

Elev 682 ft 45.18 °N, 84.91 °W | Updated 19 seconds ago

Snow
Snow
21.7 °F
Feels Like 22 °F
N
0.0
Wind Variable Wind from West

Today
High -- | Low -- °F
--% Chance of Precip.
Yesterday
High -- | Low -- °F
Precip. -- in
Pressure 30.35 in
Visibility 1.5 miles
Clouds Mostly Cloudy 2200 ft
Overcast 3300 ft
Windchill 22 °F
Dew Point 19 °F
Humidity 91%
Rainfall 0.00 in
Snow Depth Not available.
8:08 AM 4:57 PM
Waxing Gibbous, 80% visible
METAR KGLR 100453Z AUTO 29006KT 1 1/2SM -SN BKN022 OVC033 M06/M09 A3028 RMK AO2 SLP276 P0000 T10611089 410391072
Pressure 30.35 in
Visibility 1.5 miles
Clouds Mostly Cloudy 2200 ft
Overcast 3300 ft
Windchill 22 °F
Dew Point 19 °F
Humidity 91%
Rainfall 0.00 in
Snow Depth Not available.
8:08 AM 4:57 PM
Waxing Gibbous, 80% visible
METAR KGLR 100453Z AUTO 29006KT 1 1/2SM -SN BKN022 OVC033 M06/M09 A3028 RMK AO2 SLP276 P0000 T10611089 410391072

10-Day Weather Forecast

Almanac

Astronomy

Dec. 10, 2016 Rise Set
Actual Time
Civil Twilight
Nautical Twilight
Astronomical Twilight
Moon
Length of Visible Light
Length of Day
Tomorrow will be .
, % of the Moon is Illuminated

Today's Extremes

State Highs State Lows

Community

WunderPhotos

Upload Photos

1,956,529 photos uploaded!

WunderBlog® & News

Nearby

Air Quality

  Air Quality AQ Index Pollutant
Not available.

Snow Depth

Station Depth Elevation

Earthquake Activity

City Distance Mag. Time & Date
Minimum magnitude displayed is 2.5.

Coastal Water Temperatures

Place Temperature

Stations

Nearby Weather Stations

Station Location Temp. Windchill Dew Point Humidity Wind Precip. Elev Updated Type
                   

Watches & Warnings

Winter Storm Warning
Issued: 10:40 PM EST Dec. 9, 2016 – National Weather Service

... Winter Storm Warning for lake effect snow in effect until noon
EST Saturday...

The National Weather Service in Gaylord has issued a Winter Storm
Warning for lake effect snow... which is in effect until noon EST
Saturday.

* Periods of heavy lake effect snow will persist overnight...
diminishing around noon Saturday.

* The heaviest snowfall rates of one to two inches per hours will
occur through Saturday morning.

* Total snow accumulations tonight through Saturday of 4 to 8
inches... with localized higher amounts in excess of 8 inches
where snow bands remain most persistent. This will bring two
day storm total accumulations to one to two feet in many
locations across the warned area.

* Look for greatly reduced visibilities at times.

* Plan on difficult driving conditions.

A Winter Storm Warning for lake effect snow means severe winter
weather conditions are occurring. Significant amounts of snow and
greatly reduced visibilities are expected that will make travel
dangerous. If you must travel... keep an extra flashlight...
food... and water in your vehicle in case of an emergency.